West Frankfort, IL

10:05 AM CDT on April 19, 2015 (GMT -0500)
MesoWest | | Change Station
CLOSE
Current Station
Personal Weather Station
Location: West Frankfort, IL
Elevation: 439 ft
Nearby Weather Stations

Elev 439 ft 37.86 °N, 88.93 °W | Updated 1 hour ago

Mostly Cloudy
Mostly Cloudy
61 °F
Feels Like 61 °F
N
Wind Variable Wind from North
Gusts 0.0 mph

Today
High -- | Low -- °F
--% Chance of Precip.
Yesterday
High -- | Low -- °F
Precip. -- in
6:15 AM 7:35 PM
New Moon, 1% visible
Pressure 29.65 in
Visibility 3.0 miles
Clouds Mostly Cloudy 600 ft
Dew Point Not available.
Humidity Not available.
Rainfall in
Snow Depth Not available.
UV 2 out of 12
Pollen 4.00 out of 12
Air Quality Not available.
Flu Activity Regional
METAR KMWA 191354Z 06006KT 3SM -RA BKN006 16/16 A2965

More Conditions Fewer Conditions

Pressure 29.65 in
Visibility 3.0 miles
Clouds Mostly Cloudy 600 ft
Dew Point Not available.
Humidity Not available.
Rainfall in
Snow Depth Not available.
UV 2 out of 12
Pollen 4.00 out of 12
Air Quality Not available.
Flu Activity Regional
METAR KMWA 191354Z 06006KT 3SM -RA BKN006 16/16 A2965

More Conditions Fewer Conditions

10-Day Weather Forecast

Almanac

Astronomy

Apr. 19, 2015 Rise Set
Actual Time
Civil Twilight
Nautical Twilight
Astronomical Twilight
Moon
Length of Visible Light
Length of Day
Tomorrow will be .
, % of the Moon is Illuminated

Today's Extremes

State Highs State Lows

Community

WunderPhotos

Upload Photos

1,814,830 photos uploaded!

WunderBlogs® & News

Nearby

Air Quality

  Air Quality AQ Index Pollutant
Not available.

Snow Depth

Station Depth Elevation

Earthquake Activity

City Distance Mag. Time & Date
Minimum magnitude displayed is 2.5.

Coastal Water Temperatures

Place Temperature

Stations

Nearby Weather Stations

Station Location Temp. Windchill Dew Point Humidity Wind Precip. Elev Updated Type